createdAt,value
2022-12-31T00:01:53.654Z,0.43
2022-12-31T00:04:20.433Z,0.40
2022-12-31T00:06:47.444Z,0.40
2022-12-31T00:09:14.275Z,0.50
2022-12-31T00:11:41.095Z,0.30
2022-12-31T00:14:08.016Z,0.30
2022-12-31T00:16:37.453Z,0.32
2022-12-31T00:19:05.619Z,0.35
2022-12-31T00:21:33.945Z,0.43
2022-12-31T00:24:01.588Z,0.38
2022-12-31T00:26:30.280Z,0.30
2022-12-31T00:28:58.016Z,0.65
2022-12-31T00:31:28.039Z,0.32
2022-12-31T00:33:56.792Z,0.40
2022-12-31T00:36:29.734Z,0.30
2022-12-31T00:41:24.097Z,0.30
2022-12-31T00:43:51.071Z,0.35
2022-12-31T00:46:18.757Z,0.40
2022-12-31T00:48:45.732Z,0.40
2022-12-31T00:51:15.130Z,0.20
2022-12-31T00:53:42.134Z,0.60
2022-12-31T00:56:14.021Z,0.22
2022-12-31T00:58:41.161Z,0.30
2022-12-31T01:01:22.835Z,0.40
2022-12-31T01:03:51.012Z,0.63
2022-12-31T01:06:18.149Z,0.47
2022-12-31T01:08:45.081Z,0.32
2022-12-31T01:11:24.879Z,0.30
2022-12-31T01:14:03.664Z,0.40
2022-12-31T01:16:36.693Z,0.60
2022-12-31T01:21:31.940Z,1.33
2022-12-31T01:23:59.551Z,0.57
2022-12-31T01:26:26.855Z,0.43
2022-12-31T01:28:53.778Z,0.43
2022-12-31T01:31:22.059Z,0.30
2022-12-31T01:33:49.083Z,0.30
2022-12-31T01:36:25.507Z,0.40
2022-12-31T01:38:53.233Z,0.40
2022-12-31T01:41:23.518Z,0.52
2022-12-31T01:43:57.530Z,0.40
2022-12-31T01:46:29.505Z,0.60
2022-12-31T01:49:00.483Z,0.63
2022-12-31T01:51:27.970Z,0.38
2022-12-31T01:53:54.666Z,0.47
2022-12-31T01:56:21.586Z,0.35
2022-12-31T01:58:49.073Z,0.60
2022-12-31T02:01:21.133Z,0.40
2022-12-31T02:03:47.899Z,0.50
2022-12-31T02:06:25.342Z,0.65
2022-12-31T02:08:52.040Z,0.32
2022-12-31T02:11:31.624Z,0.43
2022-12-31T02:14:06.908Z,0.47
2022-12-31T02:17:01.683Z,0.40
2022-12-31T02:19:47.105Z,0.43
2022-12-31T02:22:31.996Z,0.77
2022-12-31T02:25:22.101Z,0.60
2022-12-31T02:28:09.102Z,0.47
2022-12-31T02:30:35.920Z,0.55
2022-12-31T02:33:05.692Z,0.57
2022-12-31T02:35:42.221Z,0.50
2022-12-31T02:38:13.779Z,0.40
2022-12-31T02:40:40.572Z,0.55
2022-12-31T02:43:07.319Z,0.40
2022-12-31T02:45:42.352Z,0.38
2022-12-31T02:48:22.791Z,0.38
2022-12-31T02:51:21.251Z,0.47
2022-12-31T02:53:53.714Z,0.40
2022-12-31T02:56:39.258Z,0.35
2022-12-31T02:59:33.037Z,0.50
2022-12-31T03:02:15.042Z,0.50
2022-12-31T03:04:55.929Z,0.43
2022-12-31T03:07:27.694Z,0.40
2022-12-31T03:09:54.772Z,0.35
2022-12-31T03:12:43.173Z,0.45
2022-12-31T03:15:20.540Z,0.75
2022-12-31T03:17:51.073Z,0.40
2022-12-31T03:20:37.269Z,0.43
2022-12-31T03:23:06.184Z,0.35
2022-12-31T03:25:35.705Z,0.50
2022-12-31T03:28:04.853Z,0.52
2022-12-31T03:30:32.406Z,0.60
2022-12-31T03:32:59.655Z,0.50
2022-12-31T03:35:28.063Z,0.50
2022-12-31T03:37:54.829Z,0.50
2022-12-31T03:40:23.104Z,0.40
2022-12-31T03:42:49.874Z,0.40
2022-12-31T03:45:16.724Z,0.45
2022-12-31T03:47:43.525Z,0.40
2022-12-31T03:50:12.172Z,0.30
2022-12-31T03:52:39.356Z,0.30
2022-12-31T03:55:06.676Z,0.55
2022-12-31T03:57:33.623Z,0.57
2022-12-31T04:00:00.380Z,0.40
2022-12-31T04:02:29.345Z,0.30
2022-12-31T04:04:56.384Z,0.55
2022-12-31T04:07:23.567Z,0.55
2022-12-31T04:09:50.365Z,0.40
2022-12-31T04:12:17.302Z,0.30
2022-12-31T04:14:44.000Z,0.40
2022-12-31T04:17:10.686Z,0.30
2022-12-31T04:19:37.842Z,0.30
2022-12-31T04:22:05.157Z,0.40
2022-12-31T04:24:31.980Z,0.30
2022-12-31T04:27:02.211Z,0.35
2022-12-31T04:29:34.011Z,0.40
2022-12-31T04:32:00.885Z,0.20
2022-12-31T04:34:27.982Z,0.40
2022-12-31T04:37:00.229Z,0.40
2022-12-31T04:39:27.206Z,0.43
2022-12-31T04:41:54.356Z,0.40
2022-12-31T04:44:21.496Z,0.30
2022-12-31T04:46:48.321Z,0.47
2022-12-31T04:49:15.014Z,0.50
2022-12-31T04:51:41.737Z,0.50
2022-12-31T04:54:08.676Z,0.40
2022-12-31T04:56:36.884Z,0.30
2022-12-31T04:59:04.997Z,0.50
2022-12-31T05:01:33.174Z,0.30
2022-12-31T05:04:00.320Z,0.40
2022-12-31T05:06:27.128Z,0.30
2022-12-31T05:08:54.333Z,0.30
2022-12-31T05:11:21.072Z,0.40
2022-12-31T05:13:47.867Z,0.40
2022-12-31T05:16:15.689Z,0.30
2022-12-31T05:18:42.456Z,0.50
2022-12-31T05:21:10.293Z,0.28
2022-12-31T05:23:37.119Z,0.43
2022-12-31T05:26:05.184Z,0.50
2022-12-31T05:28:32.783Z,0.32
2022-12-31T05:31:00.789Z,0.47
2022-12-31T05:33:27.560Z,0.30
2022-12-31T05:35:54.998Z,0.30
2022-12-31T05:38:21.860Z,0.40
2022-12-31T05:40:48.607Z,0.30
2022-12-31T05:43:15.441Z,0.38
2022-12-31T05:45:42.633Z,0.43
2022-12-31T05:48:09.518Z,0.50
2022-12-31T05:50:36.480Z,0.40
2022-12-31T05:53:03.359Z,0.30
2022-12-31T05:55:30.052Z,0.20
2022-12-31T05:57:56.841Z,0.28
2022-12-31T06:00:23.669Z,0.80
2022-12-31T06:02:50.423Z,0.40
2022-12-31T06:05:22.459Z,0.30
2022-12-31T06:07:52.477Z,0.30
2022-12-31T06:10:19.298Z,0.30
2022-12-31T06:12:46.029Z,0.20
2022-12-31T06:15:12.783Z,0.47
2022-12-31T06:17:39.456Z,0.40
2022-12-31T06:20:12.493Z,0.28
2022-12-31T06:22:39.921Z,0.40
2022-12-31T06:25:07.168Z,0.38
2022-12-31T06:27:33.955Z,0.22
2022-12-31T06:30:00.721Z,0.30
2022-12-31T06:32:27.606Z,0.30
2022-12-31T06:34:54.405Z,0.38
2022-12-31T06:37:21.139Z,0.47
2022-12-31T06:39:47.964Z,0.28
2022-12-31T06:42:14.638Z,0.25
2022-12-31T06:44:41.449Z,0.20
2022-12-31T06:47:08.131Z,0.40
2022-12-31T06:49:34.876Z,0.10
2022-12-31T06:52:01.587Z,0.30
2022-12-31T06:54:28.336Z,0.20
2022-12-31T06:56:55.305Z,0.40
2022-12-31T06:59:25.284Z,0.40
2022-12-31T07:02:10.602Z,0.45
2022-12-31T07:04:59.763Z,0.20
2022-12-31T07:08:03.085Z,0.35
2022-12-31T07:10:51.103Z,0.30
2022-12-31T07:13:17.854Z,0.38
2022-12-31T07:15:57.914Z,0.28
2022-12-31T07:18:49.638Z,0.40
2022-12-31T07:21:17.981Z,0.55
2022-12-31T07:23:45.153Z,0.50
2022-12-31T07:26:33.910Z,0.25
2022-12-31T07:29:45.083Z,0.40
2022-12-31T07:32:20.683Z,0.40
2022-12-31T07:34:50.485Z,0.47
2022-12-31T07:37:46.377Z,0.30
2022-12-31T07:40:25.588Z,0.40
2022-12-31T07:42:58.409Z,0.35
2022-12-31T07:45:27.150Z,0.40
2022-12-31T07:47:58.873Z,0.70
2022-12-31T07:50:29.272Z,0.30
2022-12-31T07:52:56.245Z,0.40
2022-12-31T07:55:22.978Z,0.60
2022-12-31T07:57:58.042Z,0.70
2022-12-31T08:00:25.124Z,0.77
2022-12-31T08:03:23.226Z,0.30
2022-12-31T08:05:51.507Z,0.30
2022-12-31T08:08:46.817Z,0.38
2022-12-31T08:11:41.994Z,0.30
2022-12-31T08:14:12.517Z,0.40
2022-12-31T08:16:39.763Z,0.40
2022-12-31T08:19:06.975Z,0.40
2022-12-31T08:21:43.715Z,0.40
2022-12-31T08:24:43.731Z,0.60
2022-12-31T08:27:19.735Z,0.52
2022-12-31T08:30:33.182Z,0.60
2022-12-31T08:33:22.663Z,0.40
2022-12-31T08:36:27.298Z,0.60
2022-12-31T08:39:03.809Z,0.40
2022-12-31T08:41:56.964Z,0.43
2022-12-31T08:44:58.967Z,0.65
2022-12-31T08:47:53.830Z,0.38
2022-12-31T08:50:26.767Z,0.70
2022-12-31T08:52:58.449Z,0.45
2022-12-31T08:55:26.017Z,0.57
2022-12-31T08:58:14.740Z,0.50
2022-12-31T09:00:53.149Z,0.40
2022-12-31T09:03:33.223Z,0.32
2022-12-31T09:06:09.590Z,0.40
2022-12-31T09:08:59.722Z,0.43
2022-12-31T09:15:29.071Z,0.47
2022-12-31T09:18:03.002Z,0.50
2022-12-31T09:20:44.468Z,0.52
2022-12-31T09:23:16.608Z,0.40
2022-12-31T09:26:22.016Z,0.50
2022-12-31T09:29:36.197Z,0.32
2022-12-31T09:32:12.624Z,0.40
2022-12-31T09:35:11.528Z,0.40
2022-12-31T09:37:52.507Z,0.93
2022-12-31T09:44:34.413Z,0.80
2022-12-31T09:47:30.226Z,0.63
2022-12-31T09:50:29.573Z,0.70
2022-12-31T09:53:16.533Z,0.75
2022-12-31T09:55:53.316Z,0.40
2022-12-31T09:58:47.688Z,0.40
2022-12-31T10:01:25.562Z,0.50
2022-12-31T10:04:07.747Z,0.40
2022-12-31T10:07:04.110Z,0.40
2022-12-31T10:10:05.125Z,0.40
2022-12-31T10:13:13.780Z,0.32
2022-12-31T10:16:08.271Z,0.28
2022-12-31T10:18:55.344Z,0.30
2022-12-31T10:22:00.341Z,0.45
2022-12-31T10:24:51.180Z,0.50
2022-12-31T10:27:45.892Z,0.50
2022-12-31T10:30:21.218Z,0.40
2022-12-31T10:33:06.698Z,1.83
2022-12-31T10:35:44.115Z,0.60
2022-12-31T10:38:14.567Z,0.50
2022-12-31T10:41:08.168Z,0.60
2022-12-31T10:43:50.175Z,1.42
2022-12-31T10:46:29.312Z,0.63
2022-12-31T10:49:17.703Z,1.02
2022-12-31T10:52:26.178Z,2.28
2022-12-31T10:55:34.890Z,0.57
2022-12-31T10:58:19.996Z,0.65
2022-12-31T11:01:03.167Z,0.70
2022-12-31T11:03:48.667Z,0.40
2022-12-31T11:06:24.784Z,0.40
2022-12-31T11:09:12.598Z,0.40
2022-12-31T11:12:27.214Z,0.45
2022-12-31T11:15:12.853Z,0.40
2022-12-31T11:17:58.118Z,0.57
2022-12-31T11:20:27.607Z,0.38
2022-12-31T11:23:12.563Z,0.52
2022-12-31T11:25:51.367Z,0.40
2022-12-31T11:28:35.787Z,0.40
2022-12-31T11:31:36.206Z,0.45
2022-12-31T11:34:25.102Z,0.50
2022-12-31T11:37:16.620Z,0.30
2022-12-31T11:39:52.351Z,0.60
2022-12-31T11:42:36.433Z,0.63
2022-12-31T11:45:38.703Z,0.40
2022-12-31T11:48:31.361Z,0.43
2022-12-31T11:51:09.994Z,0.80
2022-12-31T11:53:47.465Z,0.75
2022-12-31T11:56:23.228Z,0.40
2022-12-31T11:58:54.324Z,0.50
2022-12-31T12:01:40.205Z,0.40
2022-12-31T12:04:08.355Z,0.28
2022-12-31T12:06:35.096Z,0.40
2022-12-31T12:09:08.018Z,0.28
2022-12-31T12:11:37.635Z,0.30
2022-12-31T12:14:39.095Z,0.20
2022-12-31T12:17:11.134Z,0.22
2022-12-31T12:19:43.735Z,0.30
2022-12-31T12:22:20.585Z,0.40
2022-12-31T12:24:55.859Z,0.60
2022-12-31T12:27:31.328Z,0.40
2022-12-31T12:29:58.257Z,0.20
2022-12-31T12:32:27.066Z,0.47
2022-12-31T12:34:54.669Z,0.30
2022-12-31T12:37:25.145Z,0.20
2022-12-31T12:40:12.254Z,0.45
2022-12-31T12:42:50.308Z,0.47
2022-12-31T12:45:22.346Z,0.22
2022-12-31T12:47:51.051Z,0.35
2022-12-31T12:50:23.161Z,0.60
2022-12-31T12:53:02.610Z,0.50
2022-12-31T12:55:41.544Z,0.52
2022-12-31T12:58:21.874Z,0.40
2022-12-31T13:00:58.218Z,0.30
2022-12-31T13:03:32.726Z,0.40
2022-12-31T13:06:08.598Z,0.55
2022-12-31T13:08:43.902Z,0.30
2022-12-31T13:11:21.914Z,0.40
2022-12-31T13:13:51.569Z,0.80
2022-12-31T13:16:19.397Z,1.55
2022-12-31T13:18:55.567Z,1.90
2022-12-31T13:21:31.812Z,0.60
2022-12-31T13:24:07.939Z,0.50
2022-12-31T13:26:43.765Z,0.40
2022-12-31T13:29:15.966Z,0.45
2022-12-31T13:31:44.939Z,0.40
2022-12-31T13:34:21.493Z,0.35
2022-12-31T13:36:49.238Z,0.40
2022-12-31T13:39:24.192Z,0.30
2022-12-31T13:42:02.826Z,0.63
2022-12-31T13:44:38.685Z,0.45
2022-12-31T13:47:13.198Z,0.47
2022-12-31T13:49:39.921Z,0.40
2022-12-31T13:52:41.712Z,0.45
2022-12-31T13:55:19.233Z,0.28
2022-12-31T13:58:02.347Z,0.30
2022-12-31T14:00:41.634Z,0.30
2022-12-31T14:03:42.369Z,0.30
2022-12-31T14:06:22.528Z,0.25
2022-12-31T14:08:49.295Z,0.57
2022-12-31T14:11:34.444Z,0.30
2022-12-31T14:14:29.182Z,0.40
2022-12-31T14:16:58.673Z,1.15
2022-12-31T14:19:44.159Z,0.63
2022-12-31T14:22:20.543Z,1.08
2022-12-31T14:24:50.700Z,0.95
2022-12-31T14:27:24.249Z,0.75
2022-12-31T14:29:53.662Z,0.70
2022-12-31T14:32:45.176Z,0.73
2022-12-31T14:35:34.903Z,0.60
2022-12-31T14:38:24.407Z,1.00
2022-12-31T14:41:11.884Z,0.60
2022-12-31T14:43:57.258Z,1.10
2022-12-31T14:46:35.647Z,1.23
2022-12-31T14:49:33.518Z,1.40
2022-12-31T14:52:16.777Z,3.42
2022-12-31T14:54:43.555Z,3.25
2022-12-31T14:57:24.858Z,3.17
2022-12-31T14:59:56.050Z,2.05
2022-12-31T15:02:33.816Z,3.10
2022-12-31T15:05:12.929Z,5.10
2022-12-31T15:07:39.602Z,3.03
2022-12-31T15:10:27.325Z,3.42
2022-12-31T15:13:21.497Z,3.95
2022-12-31T15:15:56.082Z,3.78
2022-12-31T15:19:03.244Z,3.60
2022-12-31T15:21:41.778Z,3.15
2022-12-31T15:24:22.751Z,3.22
2022-12-31T15:26:54.662Z,3.60
2022-12-31T15:29:28.517Z,3.60
2022-12-31T15:31:55.312Z,4.10
2022-12-31T15:34:40.140Z,2.90
2022-12-31T15:37:33.388Z,2.50
2022-12-31T15:40:20.430Z,2.13
2022-12-31T15:42:50.902Z,2.40
2022-12-31T15:45:43.321Z,1.80
2022-12-31T15:48:19.716Z,2.07
2022-12-31T15:50:46.703Z,1.35
2022-12-31T15:53:34.810Z,1.40
2022-12-31T15:56:02.013Z,1.50
2022-12-31T15:58:34.334Z,1.90
2022-12-31T16:01:18.155Z,1.95
2022-12-31T16:03:52.592Z,1.52
2022-12-31T16:06:19.511Z,1.95
2022-12-31T16:08:48.538Z,2.08
2022-12-31T16:11:15.542Z,2.25
2022-12-31T16:13:46.920Z,3.20
2022-12-31T16:16:21.489Z,3.28
2022-12-31T16:18:50.295Z,4.15
2022-12-31T16:21:24.016Z,36.60
2022-12-31T16:23:52.835Z,42.78
2022-12-31T16:26:19.584Z,30.88
2022-12-31T16:28:49.422Z,29.58
2022-12-31T16:31:18.209Z,17.75
2022-12-31T16:33:47.793Z,20.67
2022-12-31T16:36:22.578Z,22.98
2022-12-31T16:38:49.697Z,11.25
2022-12-31T16:41:21.052Z,8.63
2022-12-31T16:43:49.277Z,6.45
2022-12-31T16:46:27.788Z,7.55
2022-12-31T16:49:04.291Z,10.38
2022-12-31T16:51:32.884Z,7.25
2022-12-31T16:53:59.980Z,5.40
2022-12-31T16:56:33.888Z,8.73
2022-12-31T16:59:13.366Z,13.50
2022-12-31T17:01:43.234Z,10.43
2022-12-31T17:04:12.373Z,8.85
2022-12-31T17:06:39.803Z,11.68
2022-12-31T17:09:21.366Z,8.55
2022-12-31T17:11:59.587Z,6.47
2022-12-31T17:14:30.914Z,4.75
2022-12-31T17:17:05.724Z,5.07
2022-12-31T17:19:39.073Z,4.53
2022-12-31T17:22:15.139Z,6.22
2022-12-31T17:24:43.548Z,5.90
2022-12-31T17:27:11.210Z,5.30
2022-12-31T17:29:38.412Z,5.68
2022-12-31T17:32:32.311Z,4.93
2022-12-31T17:34:59.476Z,5.72
2022-12-31T17:37:30.576Z,7.22
2022-12-31T17:40:41.019Z,10.15
2022-12-31T17:42:51.262Z,6.63
2022-12-31T17:45:21.561Z,3.97
2022-12-31T17:47:51.242Z,5.40
2022-12-31T17:50:19.530Z,4.53
2022-12-31T17:52:46.775Z,4.20
2022-12-31T17:55:13.817Z,5.88
2022-12-31T17:57:54.975Z,8.90
2022-12-31T18:00:24.249Z,5.97
2022-12-31T18:02:51.154Z,4.32
2022-12-31T18:05:20.298Z,6.13
2022-12-31T18:07:47.510Z,8.63
2022-12-31T18:10:15.752Z,8.30
2022-12-31T18:12:43.568Z,6.05
2022-12-31T18:15:22.527Z,5.60
2022-12-31T18:17:49.661Z,5.00
2022-12-31T18:20:16.932Z,9.25
2022-12-31T18:22:44.341Z,4.20
2022-12-31T18:25:16.756Z,3.13
2022-12-31T18:27:43.605Z,3.67
2022-12-31T18:30:12.320Z,3.95
2022-12-31T18:32:40.118Z,6.03
2022-12-31T18:35:57.716Z,5.15
2022-12-31T18:38:11.572Z,6.03
2022-12-31T18:40:42.852Z,5.30
2022-12-31T18:43:19.380Z,3.92
2022-12-31T18:45:47.060Z,3.72
2022-12-31T18:48:15.681Z,3.17
2022-12-31T18:50:42.791Z,2.92
2022-12-31T18:53:18.276Z,3.28
2022-12-31T18:55:56.659Z,3.25
2022-12-31T18:58:23.792Z,3.10
2022-12-31T19:00:51.218Z,3.17
2022-12-31T19:03:22.843Z,3.10
2022-12-31T19:05:51.201Z,2.95
2022-12-31T19:08:19.335Z,3.65
2022-12-31T19:10:47.172Z,3.30
2022-12-31T19:13:16.059Z,3.53
2022-12-31T19:15:48.592Z,3.35
2022-12-31T19:18:15.811Z,3.78
2022-12-31T19:20:42.749Z,4.18
2022-12-31T19:23:18.287Z,3.90
2022-12-31T19:25:46.033Z,3.90
2022-12-31T19:28:26.479Z,3.85
2022-12-31T19:30:53.767Z,4.20
2022-12-31T19:33:20.457Z,4.60
2022-12-31T19:35:47.869Z,4.43
2022-12-31T19:38:33.110Z,4.15
2022-12-31T19:41:00.494Z,4.90
2022-12-31T19:43:27.425Z,4.30
2022-12-31T19:45:54.269Z,5.40
2022-12-31T19:48:27.192Z,4.55
2022-12-31T19:50:57.202Z,4.68
2022-12-31T19:53:26.029Z,3.45
2022-12-31T19:55:53.208Z,3.85
2022-12-31T19:58:21.902Z,4.43
2022-12-31T20:00:55.648Z,5.40
2022-12-31T20:03:24.001Z,5.57
2022-12-31T20:05:50.831Z,5.60
2022-12-31T20:08:20.386Z,4.93
2022-12-31T20:10:47.204Z,6.30
2022-12-31T20:13:13.907Z,6.95
2022-12-31T20:15:47.954Z,6.25
2022-12-31T20:18:19.586Z,4.95
2022-12-31T20:20:55.083Z,4.47
2022-12-31T20:23:24.632Z,4.70
2022-12-31T20:26:01.549Z,4.45
2022-12-31T20:28:29.891Z,4.43
2022-12-31T20:30:58.944Z,4.40
2022-12-31T20:33:26.839Z,3.67
2022-12-31T20:35:56.904Z,4.00
2022-12-31T20:38:23.558Z,4.18
2022-12-31T20:40:50.455Z,6.22
2022-12-31T20:43:17.212Z,6.00
2022-12-31T20:45:44.968Z,6.28
2022-12-31T20:48:11.742Z,8.98
2022-12-31T20:50:38.543Z,8.00
2022-12-31T20:53:05.295Z,5.53
2022-12-31T20:55:32.506Z,4.47
2022-12-31T20:58:00.635Z,4.70
2022-12-31T21:00:27.594Z,5.18
2022-12-31T21:03:04.941Z,5.00
2022-12-31T21:05:37.560Z,5.90
2022-12-31T21:08:04.652Z,5.72
2022-12-31T21:10:31.452Z,6.45
2022-12-31T21:12:58.303Z,7.25
2022-12-31T21:15:25.076Z,5.07
2022-12-31T21:17:51.807Z,5.18
2022-12-31T21:20:18.602Z,6.00
2022-12-31T21:22:45.299Z,4.88
2022-12-31T21:25:12.026Z,5.55
2022-12-31T21:27:38.720Z,6.10
2022-12-31T21:30:21.213Z,5.88
2022-12-31T21:32:48.378Z,5.72
2022-12-31T21:35:42.229Z,5.45
2022-12-31T21:38:02.615Z,5.28
2022-12-31T21:40:30.694Z,6.85
2022-12-31T21:42:57.771Z,5.47
2022-12-31T21:45:24.818Z,5.53
2022-12-31T21:48:10.531Z,5.20
2022-12-31T21:50:37.943Z,4.63
2022-12-31T21:53:04.829Z,5.38
2022-12-31T21:55:50.157Z,6.18
2022-12-31T21:58:26.413Z,5.72
2022-12-31T22:01:13.569Z,5.28
2022-12-31T22:03:40.750Z,5.82
2022-12-31T22:06:20.706Z,5.70
2022-12-31T22:08:49.706Z,5.72
2022-12-31T22:11:17.504Z,5.07
2022-12-31T22:13:45.806Z,6.25
2022-12-31T22:16:17.267Z,6.13
2022-12-31T22:18:44.331Z,6.53
2022-12-31T22:21:19.385Z,7.30
2022-12-31T22:23:52.103Z,8.48
2022-12-31T22:26:21.439Z,8.40
2022-12-31T22:28:48.184Z,9.38
2022-12-31T22:31:23.211Z,8.95
2022-12-31T22:33:50.040Z,7.97
2022-12-31T22:36:19.048Z,8.50
2022-12-31T22:38:45.994Z,8.00
2022-12-31T22:41:15.507Z,8.05
2022-12-31T22:43:44.286Z,7.30
2022-12-31T22:46:14.271Z,7.95
2022-12-31T22:48:41.052Z,8.30
2022-12-31T22:51:08.831Z,8.00
2022-12-31T22:53:36.043Z,12.10
2022-12-31T22:56:02.805Z,13.43
2022-12-31T22:58:29.549Z,14.68
2022-12-31T23:00:56.283Z,28.02
2022-12-31T23:03:23.013Z,57.80
2022-12-31T23:05:51.926Z,67.82
2022-12-31T23:08:23.281Z,50.97
2022-12-31T23:11:01.119Z,62.33
2022-12-31T23:13:50.841Z,64.25
2022-12-31T23:16:37.803Z,80.72
2022-12-31T23:19:24.332Z,87.90
2022-12-31T23:22:10.052Z,90.60
2022-12-31T23:24:37.021Z,97.18
2022-12-31T23:27:04.536Z,72.85
2022-12-31T23:29:31.267Z,63.00
2022-12-31T23:31:58.578Z,52.75
2022-12-31T23:34:25.428Z,47.88
2022-12-31T23:36:52.283Z,45.65
2022-12-31T23:39:19.397Z,42.50
2022-12-31T23:41:46.393Z,40.78
2022-12-31T23:44:13.368Z,42.30
2022-12-31T23:46:40.697Z,40.95
2022-12-31T23:49:07.617Z,40.00
2022-12-31T23:51:36.650Z,37.00
2022-12-31T23:54:04.380Z,36.13
2022-12-31T23:56:31.189Z,35.70
2022-12-31T23:58:58.813Z,34.15
